There are no active watches, warnings or advisories for Caledonia (Vermont).

Nearby METAR Reports

 

KCDA - Lyndonville, Vermont, USA
Distance from station: ENE 11mi, 18km
Updated: Sun, 21-Oct-2018 12:35am EDT
Mostly cloudy
Mostly cloudy
 Wind from WNW
Wind: WNW 6 mph , 9 km/h
Temperature: 39°F , 4°C
Wind Chill: 35°F , 2°C
Dew Point: 27°F , -3°C
Humidity: 61%
Barometer: 29.63 inHg , 1003.4 hPa
Clouds: Mostly cloudy
Visibility: 10 miles , 16 km
Cloud details: Mostly cloudy 6000 ft
2018/10/21 04:35 KCDA 210435Z AUTO 29005KT 10SM BKN060 04/M03 A2963 RMK AO2 T00441026
K1V4 - St. Johnsbury, Vermont, USA
Distance from station: ESE 12mi, 19km
Updated: Sat, 20-Oct-2018 11:54pm EDT

 
Temperature: 37°F , 3°C
Dew Point: 34°F , 1°C
Humidity: 87%
Barometer: 29.59 inHg , 1002 hPa
2018/10/21 03:54 K1V4 210354Z AUTO 03/01 A2959 RMK AO1 SLP023 T00280006
 
KMVL - Morrisville, Vermont, USA
Distance from station: W 20mi, 31km
Updated: Sat, 20-Oct-2018 11:54pm EDT
Overcast
Overcast
 Wind from calm
Wind: Calm
Temperature: 43°F , 6°C
Dew Point: 34°F , 1°C
Humidity: 71%
Barometer: 29.64 inHg , 1003.7 hPa
Clouds: Overcast
Visibility: 10 miles , 16 km
Cloud details: Overcast 5500 ft
2018/10/21 03:54 KMVL 210354Z AUTO 00000KT 10SM OVC055 06/01 A2964 RMK AO2 SLP039 T00560006
KEFK - Newport State, Vermont, USA
Distance from station: N 26mi, 42km
Updated: Sun, 21-Oct-2018 12:15am EDT
Mostly cloudy
Mostly cloudy
 Wind from calm
Wind: Calm
Temperature: 39°F , 4°C
Dew Point: 28°F , -2°C
Humidity: 65%
Barometer: 29.63 inHg , 1003.4 hPa
Clouds: Mostly cloudy
Visibility: 10 miles , 16 km
Cloud details: Partly cloudy 5500 ft
Mostly cloudy 7000 ft
2018/10/21 04:15 KEFK 210415Z AUTO 00000KT 10SM SCT055 BKN070 04/M02 A2963 RMK AO2 T00431024
 
KMPV - Montpelier/Barre, Vermont, USA
Distance from station: SW 27mi, 44km
Updated: Sat, 20-Oct-2018 11:51pm EDT
Few Clouds
Few Clouds
 Wind from NW
Wind: NW 8 mph , 13 km/h
Temperature: 43°F , 6°C
Wind Chill: 38°F , 3°C
Dew Point: 30°F , -1°C
Humidity: 61%
Barometer: 29.64 inHg , 1003.7 hPa
Clouds: Few Clouds
Visibility: 10 miles , 16 km
Cloud details: Few Clouds 4300 ft
2018/10/21 03:51 KMPV 210351Z AUTO 31007KT 10SM FEW043 06/M01 A2964 RMK AO2 SLP042 T00561011
KHIE - Whitefield, New Hampshire, USA
Distance from station: ESE 34mi, 55km
Updated: Sat, 20-Oct-2018 11:52pm EDT
Mostly cloudy
Mostly cloudy
 Wind from S
Wind: S 3 mph , 6 km/h
Temperature: 36°F , 2°C
Dew Point: 34°F , 1°C
Humidity: 93%
Barometer: 29.60 inHg , 1002.4 hPa
Clouds: Mostly cloudy
Visibility: 10 miles , 16 km
Cloud details: Mostly cloudy 4200 ft
2018/10/21 03:52 KHIE 210352Z AUTO 19003KT 10SM BKN042 02/01 A2960 RMK AO2 SLP030 T00220006
 
KBTV - Burlington, Vermont, USA
Distance from station: W 46mi, 74km
Updated: Sat, 20-Oct-2018 11:54pm EDT
Mostly cloudy
Mostly cloudy
 Wind from N
Wind: N 9 mph , 15 km/h, Gust: 18 mph , 30 km/h
Temperature: 46°F , 8°C
Wind Chill: 41°F , 5°C
Dew Point: 30°F , -1°C
Humidity: 53%
Barometer: 29.65 inHg , 1004.1 hPa
Clouds: Mostly cloudy
Visibility: 10 miles , 16 km
Cloud details: Mostly cloudy 5000 ft
2018/10/21 03:54 KBTV 210354Z 35008G16KT 10SM BKN050 08/M01 A2965 RMK AO2 SLP042 "LAST" T00781006
CWFQ - Frelighsburg, Quebec, Canada
Distance from station: NW 47mi, 75km
Updated: Sun, 21-Oct-2018 12:00am EDT

 Wind from N
Wind: N 5 mph , 7 km/h
Temperature: 41°F , 5°C
Wind Chill: 38°F , 3°C
Dew Point: 30°F , -1°C
Humidity: 66%
2018/10/21 04:00 CWFQ 210400Z AUTO 35004KT 05/M01 RMK AO1 SLP037 T00461007 53020
 
KMWN - Mount Washington, New Hampshire, USA
Distance from station: ESE 49mi, 79km
Updated: Sat, 20-Oct-2018 11:51pm EDT
Freezing fog, Overcast
Freezing fog, Overcast
 Wind from WNW
Wind: WNW 37 mph , 59 km/h
Temperature: 23°F , -5°C
Wind Chill: 4°F , -16°C
Dew Point: 23°F , -5°C
Humidity: 100%
Summary: Freezing Fog
Clouds: Overcast
Visibility: 0 miles , 0 km
Cloud details: Overcast 0 ft
2018/10/21 03:51 KMWN 210351Z 29032KT 0SM FZFG VV000 M05/M05 RMK VRY LGT ICG
KBML - Berlin, New Hampshire, USA
Distance from station: E 51mi, 83km
Updated: Sat, 20-Oct-2018 11:52pm EDT
Few Clouds
Few Clouds
 Wind from calm
Wind: Calm
Temperature: 36°F , 2°C
Dew Point: 30°F , -1°C
Humidity: 81%
Barometer: 29.58 inHg , 1001.7 hPa
Clouds: Few Clouds
Visibility: 10 miles , 16 km
Cloud details: Few Clouds 4600 ft
2018/10/21 03:52 KBML 210352Z AUTO 00000KT 10SM FEW046 02/M01 A2958 RMK AO2 SLP023 T00171006
 
KFSO - Highgate, Vermont, USA
Distance from station: NW 52mi, 84km
Updated: Sun, 21-Oct-2018 12:35am EDT
Overcast
Overcast
 Wind from NW
Wind: NW 3 mph , 6 km/h
Temperature: 41°F , 5°C
Dew Point: 32°F , 0°C
Humidity: 70%
Barometer: 29.67 inHg , 1004.7 hPa
Clouds: Overcast
Visibility: 10 miles , 16 km
Cloud details: Mostly cloudy 7000 ft
Overcast 8000 ft
2018/10/21 04:35 KFSO 210435Z AUTO 32003KT 10SM BKN070 OVC080 05/00 A2967 RMK AO2 T00520000
CWTT - Lac Memphremagog, Quebec, Canada
Distance from station: N 53mi, 85km
Updated: Sun, 21-Oct-2018 12:00am EDT

 Wind from NW
Wind: NW 5 mph , 7 km/h
Temperature: 43°F , 6°C
Wind Chill: 40°F , 4°C
Dew Point: 30°F , -1°C
Humidity: 61%
2018/10/21 04:00 CWTT 210400Z AUTO 32004KT 06/M01 RMK AO1 T00571006
 
K1P1 - Plymouth, New Hampshire, USA
Distance from station: SSE 55mi, 88km
Updated: Sun, 21-Oct-2018 12:35am EDT
Clear
Clear
 Wind from calm
Wind: Calm
Temperature: 36°F , 2°C
Dew Point: 34°F , 1°C
Humidity: 93%
Barometer: 29.59 inHg , 1002 hPa
Clouds: Clear
Visibility: 10 miles , 16 km
2018/10/21 04:35 K1P1 210435Z AUTO 00000KT 10SM CLR 02/01 A2959 RMK AO2 T00240006
KLEB - Lebanon, New Hampshire, USA
Distance from station: S 60mi, 97km
Updated: Sat, 20-Oct-2018 11:53pm EDT
Clear
Clear
 Wind from calm
Wind: Calm
Temperature: 37°F , 3°C
Dew Point: 32°F , 0°C
Humidity: 81%
Barometer: 29.58 inHg , 1001.7 hPa
Clouds: Clear
Visibility: 10 miles , 16 km
2018/10/21 03:53 KLEB 210353Z AUTO 00000KT 10SM CLR 03/00 A2958 RMK AO2 SLP017 T00330000
 
KPBG - Plattsburgh Afb, New York, USA
Distance from station: W 62mi, 100km
Updated: Sat, 20-Oct-2018 11:53pm EDT
Mostly cloudy
Mostly cloudy
 Wind from varies
Wind: varies 3 mph , 6 km/h
Temperature: 43°F , 6°C
Dew Point: 30°F , -1°C
Humidity: 61%
Barometer: 29.67 inHg , 1004.7 hPa
Clouds: Mostly cloudy
Visibility: 10 miles , 16 km
Cloud details: Mostly cloudy 7000 ft
2018/10/21 03:53 KPBG 210353Z AUTO VRB03KT 10SM BKN070 06/M01 A2967 RMK AO2 SLP047 T00611011
CWQH - Lennoxville, Quebec, Canada
Distance from station: NNE 63mi, 101km
Updated: Sun, 21-Oct-2018 12:00am EDT

 Wind from NW
Wind: NW 6 mph , 9 km/h
Temperature: 41°F , 5°C
Wind Chill: 37°F , 3°C
Dew Point: 30°F , -1°C
Humidity: 66%
2018/10/21 04:00 CWQH 210400Z AUTO 31005KT 05/M01 RMK AO1 T00541013
 
CMGB - Granby, Quebec, Canada
Distance from station: NNW 65mi, 105km
Updated: Sun, 21-Oct-2018 12:30am EDT

 Wind from WNW
Wind: WNW 5 mph , 7 km/h
Temperature: 41°F , 5°C
Wind Chill: 38°F , 3°C
Dew Point: 32°F , 0°C
Humidity: 70%
2018/10/21 04:30 CMGB 210430Z AUTO 30004KT 05/M00 RMK AO1 SLP041 T00471003 52023
CYSC - Sherbrooke, Quebec, Canada
Distance from station: NNE 69mi, 112km
Updated: Sun, 21-Oct-2018 12:00am EDT
Overcast
Overcast
 Wind from W
Wind: W 7 mph , 11 km/h
Temperature: 39°F , 4°C
Wind Chill: 34°F , 1°C
Dew Point: 30°F , -1°C
Humidity: 70%
Barometer: 29.60 inHg , 1002.4 hPa
Clouds: Overcast
Visibility: 9 miles , 14 km
Cloud details: Overcast 8000 ft
2018/10/21 04:00 CYSC 210400Z AUTO 28006KT 9SM OVC080 04/M01 A2960 RMK SLP031
 
KIZG - Fryeburg, Maine, USA
Distance from station: ESE 72mi, 117km
Updated: Sat, 20-Oct-2018 11:54pm EDT
Clear
Clear
 Wind from NE
Wind: NE 6 mph , 9 km/h
Temperature: 37°F , 3°C
Wind Chill: 32°F , 0°C
Dew Point: 34°F , 1°C
Humidity: 87%
Barometer: 29.58 inHg , 1001.7 hPa
Clouds: Clear
Visibility: 10 miles , 16 km
2018/10/21 03:54 KIZG 210354Z AUTO 04005KT 10SM CLR 03/01 A2958 RMK AO2 SLP018 T00280006